HAAB/ADD METAR and TAF weather

Enter ICAO airport designator
Station Type Date Time Source
HAAB METAR 2019/02/20 06:00 UTC NOAA

HAAB 200600Z 07008KT 9999 SCT025 FEW070 18/11 Q1027


Station Type Date Time Source
HAAB Decoded METAR 2019/02/20 06:00 UTC NOAA

Addis Ababa, Ethiopia (HAAB) 08-59N 038-48E 2324M
Feb 20, 2019 - 01:00 AM EST / 2019.02.20 0600 UTC
Wind: from the ENE (070 degrees) at 9 MPH (8 KT):0
Visibility: greater than 7 mile(s):0
Sky conditions: partly cloudy
Temperature: 64 F (18 C)
Dew Point: 51 F (11 C)
Relative Humidity: 63%
Pressure (altimeter): 30.33 in. Hg (1027 hPa)
ob: HAAB 200600Z 07008KT 9999 SCT025 FEW070 18/11 Q1027
cycle: 6

Station Type Date Time Source
HAAB TAF 2019/02/19 22:42 UTC NOAA

TAF TAF HAAB 192130Z 1922/2104 03010KT 9999 SCT040 FEW080
BECMG2005/2010 12008KT 9000 -HZ SCT030 BKN070


Example: see airport list